createdAt,value
2022-09-17T00:02:27.599Z,81.70
2022-09-17T00:05:37.578Z,81.62
2022-09-17T00:08:46.260Z,81.90
2022-09-17T00:11:52.874Z,81.51
2022-09-17T00:14:59.016Z,81.48
2022-09-17T00:18:05.911Z,81.52
2022-09-17T00:21:20.012Z,82.01
2022-09-17T00:24:29.530Z,81.67
2022-09-17T00:27:36.051Z,81.85
2022-09-17T00:30:43.791Z,81.84
2022-09-17T00:33:49.568Z,81.79
2022-09-17T00:36:56.376Z,81.29
2022-09-17T00:40:06.332Z,81.78
2022-09-17T00:43:15.865Z,81.43
2022-09-17T00:46:30.138Z,81.72
2022-09-17T00:49:37.277Z,81.72
2022-09-17T00:52:47.131Z,82.29
2022-09-17T00:56:00.917Z,82.09
2022-09-17T00:59:08.747Z,82.13
2022-09-17T01:02:16.009Z,82.70
2022-09-17T01:05:24.289Z,82.86
2022-09-17T01:08:37.857Z,82.67
2022-09-17T01:11:58.565Z,82.75
2022-09-17T01:15:18.942Z,82.52
2022-09-17T01:18:40.793Z,82.36
2022-09-17T01:22:01.139Z,82.11
2022-09-17T01:25:26.035Z,81.88
2022-09-17T01:28:44.388Z,81.93
2022-09-17T01:31:56.861Z,81.76
2022-09-17T01:35:08.474Z,81.72
2022-09-17T01:38:18.591Z,82.01
2022-09-17T01:41:34.410Z,82.25
2022-09-17T01:44:48.367Z,82.03
2022-09-17T01:48:03.250Z,82.23
2022-09-17T01:51:13.145Z,82.37
2022-09-17T01:54:26.135Z,82.54
2022-09-17T01:57:36.295Z,82.43
2022-09-17T02:00:47.797Z,82.44
2022-09-17T02:04:03.676Z,82.51
2022-09-17T02:07:20.365Z,82.63
2022-09-17T02:10:29.315Z,82.83
2022-09-17T02:13:41.356Z,82.49
2022-09-17T02:16:53.022Z,82.55
2022-09-17T02:20:04.080Z,82.64
2022-09-17T02:23:15.983Z,82.48
2022-09-17T02:26:26.500Z,82.68
2022-09-17T02:29:35.807Z,82.61
2022-09-17T02:32:42.724Z,82.85
2022-09-17T02:35:51.729Z,82.52
2022-09-17T02:39:03.814Z,82.75
2022-09-17T02:42:19.994Z,82.38
2022-09-17T02:45:38.451Z,82.79
2022-09-17T02:48:58.689Z,82.71
2022-09-17T02:52:14.435Z,82.97
2022-09-17T02:55:24.787Z,82.79
2022-09-17T02:58:36.856Z,82.58
2022-09-17T03:01:48.077Z,82.78
2022-09-17T03:04:56.026Z,82.60
2022-09-17T03:08:10.131Z,82.75
2022-09-17T03:11:19.238Z,83.14
2022-09-17T03:14:26.017Z,82.80
2022-09-17T03:17:34.403Z,82.73
2022-09-17T03:20:41.608Z,82.70
2022-09-17T03:23:54.045Z,82.74
2022-09-17T03:27:00.159Z,82.92
2022-09-17T03:30:10.897Z,82.61
2022-09-17T03:33:19.223Z,82.84
2022-09-17T03:36:26.981Z,82.38
2022-09-17T03:39:36.422Z,82.78
2022-09-17T03:42:44.676Z,82.72
2022-09-17T03:45:52.126Z,83.50
2022-09-17T03:49:00.173Z,83.37
2022-09-17T03:52:11.472Z,83.55
2022-09-17T03:55:22.951Z,83.99
2022-09-17T03:58:30.746Z,84.00
2022-09-17T04:01:38.543Z,84.46
2022-09-17T04:04:46.275Z,84.11
2022-09-17T04:07:54.487Z,84.42
2022-09-17T04:11:08.670Z,84.24
2022-09-17T04:14:16.301Z,84.02
2022-09-17T04:17:24.456Z,84.27
2022-09-17T04:20:33.330Z,84.65
2022-09-17T04:23:41.249Z,84.90
2022-09-17T04:26:52.419Z,85.43
2022-09-17T04:29:59.504Z,85.24
2022-09-17T04:33:10.113Z,85.28
2022-09-17T04:36:17.949Z,85.55
2022-09-17T04:39:25.764Z,85.66
2022-09-17T04:42:36.447Z,85.79
2022-09-17T04:45:45.132Z,85.58
2022-09-17T04:48:52.450Z,85.71
2022-09-17T04:52:00.626Z,85.65
2022-09-17T04:55:09.018Z,85.56
2022-09-17T04:58:20.144Z,85.72
2022-09-17T05:01:27.765Z,85.66
2022-09-17T05:04:35.746Z,85.52
2022-09-17T05:07:42.961Z,85.96
2022-09-17T05:10:53.541Z,85.60
2022-09-17T05:14:03.887Z,85.40
2022-09-17T05:17:12.088Z,84.69
2022-09-17T05:20:20.520Z,84.77
2022-09-17T05:23:28.500Z,84.12
2022-09-17T05:26:36.068Z,84.41
2022-09-17T05:29:46.898Z,83.84
2022-09-17T05:33:03.537Z,83.60
2022-09-17T05:36:11.459Z,83.09
2022-09-17T05:39:18.591Z,82.49
2022-09-17T05:42:27.625Z,83.15
2022-09-17T05:45:38.957Z,83.12
2022-09-17T05:48:47.618Z,82.94
2022-09-17T05:51:56.112Z,82.79
2022-09-17T05:55:03.868Z,82.69
2022-09-17T05:58:14.701Z,82.62
2022-09-17T06:01:25.506Z,82.66
2022-09-17T08:47:39.524Z,65.90
2022-09-17T08:51:08.588Z,64.12
2022-09-17T08:54:39.942Z,64.86
2022-09-17T08:58:24.970Z,65.55
2022-09-17T09:01:59.462Z,66.38
2022-09-17T09:05:33.491Z,65.47
2022-09-17T09:09:04.094Z,65.57
2022-09-17T09:12:31.604Z,66.40
2022-09-17T09:16:03.587Z,65.54
2022-09-17T09:19:31.418Z,66.59
2022-09-17T09:22:58.514Z,65.22
2022-09-17T09:26:24.767Z,65.72
2022-09-17T09:30:04.291Z,65.86
2022-09-17T09:33:32.998Z,66.17
2022-09-17T09:37:03.568Z,66.82
2022-09-17T09:40:41.423Z,65.19
2022-09-17T09:44:13.828Z,65.88
2022-09-17T09:47:56.419Z,65.19
2022-09-17T09:51:33.146Z,66.07
2022-09-17T09:55:15.336Z,66.03
2022-09-17T09:58:44.279Z,65.83
2022-09-17T10:02:08.872Z,65.68
2022-09-17T10:05:35.959Z,66.24
2022-09-17T10:09:16.784Z,65.80
2022-09-17T10:12:41.545Z,65.99
2022-09-17T10:16:23.235Z,65.22
2022-09-17T10:19:49.439Z,65.10
2022-09-17T10:23:15.455Z,65.25
2022-09-17T10:26:41.080Z,65.69
2022-09-17T10:30:18.280Z,65.64
2022-09-17T10:33:55.972Z,65.17
2022-09-17T10:37:45.464Z,65.54
2022-09-17T10:41:25.883Z,64.82
2022-09-17T10:44:55.587Z,64.78
2022-09-17T10:48:22.922Z,65.51
2022-09-17T10:51:50.451Z,64.78
2022-09-17T10:55:25.526Z,65.07
2022-09-17T10:59:00.135Z,65.50
2022-09-17T11:02:59.064Z,65.72
2022-09-17T11:06:41.155Z,65.82
2022-09-17T11:10:18.199Z,66.06
2022-09-17T11:13:50.451Z,66.55
2022-09-17T11:17:25.568Z,66.46
2022-09-17T11:21:17.315Z,66.30
2022-09-17T11:25:15.170Z,67.40
2022-09-17T11:28:54.355Z,67.82
2022-09-17T11:32:36.869Z,67.49
2022-09-17T11:36:08.656Z,68.39
2022-09-17T11:39:43.218Z,68.91
2022-09-17T11:43:16.648Z,71.57
2022-09-17T11:46:48.836Z,72.95
2022-09-17T11:50:23.014Z,73.96
2022-09-17T11:53:52.795Z,74.28
2022-09-17T11:57:19.823Z,74.29
2022-09-17T12:00:52.067Z,73.46
2022-09-17T12:04:43.035Z,74.02
2022-09-17T12:08:15.721Z,74.40
2022-09-17T12:11:45.863Z,74.09
2022-09-17T12:15:22.069Z,73.65
2022-09-17T12:18:54.069Z,74.18
2022-09-17T12:22:24.559Z,74.05
2022-09-17T12:25:59.323Z,73.74
2022-09-17T12:29:42.769Z,73.54
2022-09-17T12:33:17.040Z,71.77
2022-09-17T12:36:49.856Z,71.92
2022-09-17T12:40:34.835Z,70.81
2022-09-17T12:44:16.537Z,70.70
2022-09-17T12:48:06.811Z,68.08
2022-09-17T12:51:54.305Z,69.02
2022-09-17T12:55:42.530Z,67.47
2022-09-17T12:59:11.870Z,66.17
2022-09-17T13:02:41.854Z,65.48
2022-09-17T13:06:23.634Z,66.38
2022-09-17T13:10:26.264Z,66.93
2022-09-17T13:14:00.471Z,66.66
2022-09-17T13:17:35.275Z,66.49
2022-09-17T13:21:08.319Z,65.72
2022-09-17T13:24:33.916Z,66.85
2022-09-17T13:28:10.580Z,66.31
2022-09-17T13:31:52.643Z,64.18
2022-09-17T13:35:55.200Z,64.47
2022-09-17T13:39:40.409Z,64.76
2022-09-17T13:43:12.605Z,64.62
2022-09-17T13:46:38.601Z,64.53
2022-09-17T13:50:09.290Z,64.18
2022-09-17T13:53:39.110Z,62.49
2022-09-17T13:57:16.700Z,62.31
2022-09-17T14:00:52.980Z,62.07
2022-09-17T14:04:49.891Z,62.02
2022-09-17T14:08:29.449Z,60.36
2022-09-17T14:11:54.262Z,62.25
2022-09-17T14:15:39.653Z,62.64
2022-09-17T14:19:06.946Z,61.73
2022-09-17T14:22:32.986Z,61.58
2022-09-17T14:26:00.340Z,61.92
2022-09-17T14:30:06.475Z,62.75
2022-09-17T14:33:33.909Z,63.44
2022-09-17T14:36:59.976Z,63.14
2022-09-17T14:40:28.115Z,63.09
2022-09-17T14:44:03.843Z,63.83
2022-09-17T14:47:29.639Z,64.41
2022-09-17T14:50:53.930Z,64.21
2022-09-17T14:54:21.627Z,63.92
2022-09-17T14:57:48.096Z,64.62
2022-09-17T15:01:26.069Z,65.47
2022-09-17T15:04:50.623Z,65.13
2022-09-17T15:08:18.101Z,65.75
2022-09-17T15:11:45.410Z,67.30
2022-09-17T15:15:20.191Z,68.63
2022-09-17T15:18:52.610Z,69.62
2022-09-17T15:22:21.194Z,70.32
2022-09-17T15:25:48.238Z,70.76
2022-09-17T15:29:15.569Z,71.47
2022-09-17T15:32:44.215Z,72.13
2022-09-17T15:36:22.408Z,71.65
2022-09-17T15:39:53.515Z,71.51
2022-09-17T15:43:21.877Z,71.52
2022-09-17T15:46:46.295Z,71.96
2022-09-17T15:50:17.319Z,72.24
2022-09-17T15:53:55.313Z,72.11
2022-09-17T15:57:19.834Z,72.55
2022-09-17T16:00:44.043Z,72.32
2022-09-17T16:04:21.553Z,72.53
2022-09-17T16:07:46.446Z,72.44
2022-09-17T16:11:13.859Z,72.77
2022-09-17T16:14:38.604Z,73.36
2022-09-17T16:18:03.600Z,73.56
2022-09-17T16:21:28.645Z,73.74
2022-09-17T16:24:52.859Z,73.85
2022-09-17T16:28:22.320Z,73.46
2022-09-17T16:31:46.929Z,73.47
2022-09-17T16:35:17.253Z,73.59
2022-09-17T16:38:41.923Z,73.86
2022-09-17T16:42:07.213Z,73.99
2022-09-17T16:45:34.851Z,73.96
2022-09-17T16:49:00.736Z,74.29
2022-09-17T16:52:26.981Z,74.59
2022-09-17T16:55:51.795Z,74.91
2022-09-17T16:59:16.560Z,75.19
2022-09-17T17:02:44.027Z,75.00
2022-09-17T17:06:08.714Z,75.50
2022-09-17T17:09:33.017Z,76.02
2022-09-17T17:12:57.999Z,76.15
2022-09-17T17:16:23.939Z,76.34
2022-09-17T17:19:51.363Z,76.40
2022-09-17T17:23:15.589Z,76.38
2022-09-17T17:26:40.596Z,76.59
2022-09-17T17:30:07.209Z,76.81
2022-09-17T17:33:31.468Z,76.48
2022-09-17T17:36:58.686Z,76.45
2022-09-17T17:40:23.251Z,76.25
2022-09-17T17:43:47.653Z,76.02
2022-09-17T17:47:12.443Z,76.25
2022-09-17T17:50:39.503Z,76.18
2022-09-17T17:54:06.695Z,76.06
2022-09-17T17:57:31.024Z,76.40
2022-09-17T18:00:55.699Z,76.17
2022-09-17T18:04:19.865Z,76.00
2022-09-17T18:07:44.413Z,76.21
2022-09-17T18:11:13.939Z,75.79
2022-09-17T18:14:38.448Z,75.47
2022-09-17T18:18:06.256Z,75.81
2022-09-17T18:21:31.837Z,75.51
2022-09-17T18:24:56.540Z,74.86
2022-09-17T18:28:24.096Z,74.30
2022-09-17T18:31:48.517Z,74.25
2022-09-17T18:35:12.728Z,74.07
2022-09-17T18:38:39.753Z,73.57
2022-09-17T18:42:04.347Z,73.40
2022-09-17T18:45:32.423Z,73.37
2022-09-17T18:48:59.693Z,73.50
2022-09-17T18:52:23.960Z,73.82
2022-09-17T18:55:49.812Z,73.76
2022-09-17T18:59:16.577Z,74.02
2022-09-17T19:02:44.564Z,73.99
2022-09-17T19:06:11.823Z,74.26
2022-09-17T19:09:36.326Z,74.77
2022-09-17T19:13:00.787Z,74.70
2022-09-17T19:16:26.693Z,74.87
2022-09-17T19:19:53.943Z,75.41
2022-09-17T19:23:18.448Z,76.74
2022-09-17T19:26:42.788Z,77.53
2022-09-17T19:30:07.978Z,78.29
2022-09-17T19:33:33.080Z,78.38
2022-09-17T19:37:00.384Z,78.64
2022-09-17T19:40:28.369Z,78.87
2022-09-17T19:43:54.678Z,79.34
2022-09-17T19:47:19.107Z,79.03
2022-09-17T19:50:53.608Z,79.10
2022-09-17T19:54:20.877Z,78.93
2022-09-17T19:57:45.092Z,78.88
2022-09-17T20:01:09.923Z,78.42
2022-09-17T20:04:35.004Z,78.68
2022-09-17T20:07:59.507Z,78.74
2022-09-17T20:11:28.693Z,78.75
2022-09-17T20:14:53.208Z,78.27
2022-09-17T20:18:23.110Z,78.32
2022-09-17T20:21:48.737Z,78.64
2022-09-17T20:25:13.264Z,79.02
2022-09-17T20:28:40.538Z,78.73
2022-09-17T20:32:06.749Z,78.78
2022-09-17T20:35:31.124Z,79.01
2022-09-17T20:39:17.955Z,78.96
2022-09-17T20:42:41.460Z,79.21
2022-09-17T20:46:11.605Z,78.77
2022-09-17T20:49:36.287Z,79.33
2022-09-17T20:53:00.907Z,79.71
2022-09-17T20:56:28.924Z,80.75
2022-09-17T20:59:55.862Z,81.55
2022-09-17T21:03:23.471Z,82.41
2022-09-17T21:06:48.899Z,83.15
2022-09-17T21:10:13.742Z,84.06
2022-09-17T21:13:39.156Z,84.73
2022-09-17T21:17:04.002Z,85.36
2022-09-17T21:20:31.340Z,86.01
2022-09-17T21:23:56.497Z,86.30
2022-09-17T21:27:20.630Z,86.22
2022-09-17T21:30:47.025Z,86.11
2022-09-17T21:34:14.087Z,85.90
2022-09-17T21:37:41.403Z,85.90
2022-09-17T21:41:10.435Z,85.72
2022-09-17T21:44:34.618Z,85.48
2022-09-17T21:47:59.981Z,85.37
2022-09-17T21:51:30.570Z,85.42
2022-09-17T21:54:57.679Z,85.40
2022-09-17T21:58:21.862Z,85.51
2022-09-17T22:01:48.948Z,85.57
2022-09-17T22:05:13.523Z,86.30
2022-09-17T22:08:38.870Z,85.91
2022-09-17T22:12:07.754Z,86.25
2022-09-17T22:15:32.317Z,86.33
2022-09-17T22:18:56.586Z,86.38
2022-09-17T22:22:21.433Z,86.27
2022-09-17T22:25:46.007Z,86.59
2022-09-17T22:29:15.889Z,86.80
2022-09-17T22:32:40.526Z,87.07
2022-09-17T22:36:08.684Z,87.76
2022-09-17T22:39:33.270Z,87.68
2022-09-17T22:42:58.362Z,88.07
2022-09-17T22:46:27.933Z,88.42
2022-09-17T22:49:52.249Z,88.74
2022-09-17T22:53:16.989Z,88.89
2022-09-17T22:56:42.064Z,89.03
2022-09-17T23:00:08.383Z,89.06
2022-09-17T23:03:35.759Z,89.13
2022-09-17T23:07:00.483Z,89.55
2022-09-17T23:10:25.703Z,89.63
2022-09-17T23:13:50.167Z,89.62
2022-09-17T23:17:15.055Z,88.81
2022-09-17T23:20:42.822Z,88.64
2022-09-17T23:24:07.842Z,88.29
2022-09-17T23:27:32.308Z,88.45
2022-09-17T23:30:56.757Z,88.38
2022-09-17T23:34:21.107Z,88.51
2022-09-17T23:37:48.462Z,88.32
2022-09-17T23:41:14.976Z,88.26
2022-09-17T23:44:39.567Z,88.18
2022-09-17T23:48:04.093Z,88.06
2022-09-17T23:51:31.181Z,87.78
2022-09-17T23:54:58.714Z,87.49
2022-09-17T23:58:22.988Z,87.41
